sensor_id;sensor_type;location;lat;lon;timestamp;temperature;humidity
4596;DHT22;2310;49.978;8.742;2022-11-20T00:03:49;5.20;99.90
4596;DHT22;2310;49.978;8.742;2022-11-20T00:07:50;5.30;99.90
4596;DHT22;2310;49.978;8.742;2022-11-20T00:11:51;5.20;99.90
4596;DHT22;2310;49.978;8.742;2022-11-20T00:16:00;5.20;99.90
4596;DHT22;2310;49.978;8.742;2022-11-20T00:20:02;5.00;99.90
4596;DHT22;2310;49.978;8.742;2022-11-20T00:24:04;5.00;99.90
4596;DHT22;2310;49.978;8.742;2022-11-20T00:28:05;5.10;99.90
4596;DHT22;2310;49.978;8.742;2022-11-20T00:32:06;5.20;99.90
4596;DHT22;2310;49.978;8.742;2022-11-20T00:36:10;5.10;99.90
4596;DHT22;2310;49.978;8.742;2022-11-20T00:40:12;5.00;99.90
4596;DHT22;2310;49.978;8.742;2022-11-20T00:44:13;4.90;99.90
4596;DHT22;2310;49.978;8.742;2022-11-20T00:48:14;5.00;99.90
4596;DHT22;2310;49.978;8.742;2022-11-20T00:52:16;5.10;99.90
4596;DHT22;2310;49.978;8.742;2022-11-20T00:56:18;5.20;99.90
4596;DHT22;2310;49.978;8.742;2022-11-20T01:00:19;5.20;99.90
4596;DHT22;2310;49.978;8.742;2022-11-20T01:04:21;5.20;99.90
4596;DHT22;2310;49.978;8.742;2022-11-20T01:08:22;5.20;99.90
4596;DHT22;2310;49.978;8.742;2022-11-20T01:12:23;5.10;99.90
4596;DHT22;2310;49.978;8.742;2022-11-20T01:16:31;5.20;99.90
4596;DHT22;2310;49.978;8.742;2022-11-20T01:20:28;5.20;99.90
4596;DHT22;2310;49.978;8.742;2022-11-20T01:24:30;5.30;99.90
4596;DHT22;2310;49.978;8.742;2022-11-20T01:28:31;5.20;99.90
4596;DHT22;2310;49.978;8.742;2022-11-20T01:32:33;5.20;99.90
4596;DHT22;2310;49.978;8.742;2022-11-20T01:36:35;5.10;99.90
4596;DHT22;2310;49.978;8.742;2022-11-20T01:40:37;5.20;99.90
4596;DHT22;2310;49.978;8.742;2022-11-20T01:44:54;5.20;99.90
4596;DHT22;2310;49.978;8.742;2022-11-20T01:53:25;5.20;99.90
4596;DHT22;2310;49.978;8.742;2022-11-20T01:57:29;5.20;99.90
4596;DHT22;2310;49.978;8.742;2022-11-20T02:01:32;5.10;99.90
4596;DHT22;2310;49.978;8.742;2022-11-20T02:05:55;5.10;99.90
4596;DHT22;2310;49.978;8.742;2022-11-20T02:09:56;5.10;99.90
4596;DHT22;2310;49.978;8.742;2022-11-20T02:13:59;5.20;99.90
4596;DHT22;2310;49.978;8.742;2022-11-20T02:18:01;5.30;99.90
4596;DHT22;2310;49.978;8.742;2022-11-20T02:22:10;5.30;99.90
4596;DHT22;2310;49.978;8.742;2022-11-20T02:26:12;5.10;99.90
4596;DHT22;2310;49.978;8.742;2022-11-20T02:30:15;5.40;99.90
4596;DHT22;2310;49.978;8.742;2022-11-20T02:34:17;5.40;99.90
4596;DHT22;2310;49.978;8.742;2022-11-20T02:38:18;5.30;99.90
4596;DHT22;2310;49.978;8.742;2022-11-20T02:42:19;5.30;99.90
4596;DHT22;2310;49.978;8.742;2022-11-20T02:46:20;5.30;99.90
4596;DHT22;2310;49.978;8.742;2022-11-20T02:50:21;5.20;99.90
4596;DHT22;2310;49.978;8.742;2022-11-20T02:54:23;5.20;99.90
4596;DHT22;2310;49.978;8.742;2022-11-20T02:58:25;5.30;99.90
4596;DHT22;2310;49.978;8.742;2022-11-20T03:02:30;5.30;99.90
4596;DHT22;2310;49.978;8.742;2022-11-20T03:06:32;5.30;99.90
4596;DHT22;2310;49.978;8.742;2022-11-20T03:10:33;5.40;99.90
4596;DHT22;2310;49.978;8.742;2022-11-20T03:14:34;5.40;99.90
4596;DHT22;2310;49.978;8.742;2022-11-20T03:18:35;5.50;99.90
4596;DHT22;2310;49.978;8.742;2022-11-20T03:22:37;5.60;99.90
4596;DHT22;2310;49.978;8.742;2022-11-20T03:26:38;5.60;99.90
4596;DHT22;2310;49.978;8.742;2022-11-20T03:30:39;5.50;99.90
4596;DHT22;2310;49.978;8.742;2022-11-20T03:34:41;5.50;99.90
4596;DHT22;2310;49.978;8.742;2022-11-20T03:38:43;5.50;99.90
4596;DHT22;2310;49.978;8.742;2022-11-20T03:42:44;5.60;99.90
4596;DHT22;2310;49.978;8.742;2022-11-20T03:46:45;5.50;99.90
4596;DHT22;2310;49.978;8.742;2022-11-20T03:50:46;5.60;99.90
4596;DHT22;2310;49.978;8.742;2022-11-20T03:54:48;5.70;99.90
4596;DHT22;2310;49.978;8.742;2022-11-20T03:58:50;5.70;99.90
4596;DHT22;2310;49.978;8.742;2022-11-20T04:02:51;5.60;99.90
4596;DHT22;2310;49.978;8.742;2022-11-20T04:06:52;5.60;99.90
4596;DHT22;2310;49.978;8.742;2022-11-20T04:10:53;5.80;99.90
4596;DHT22;2310;49.978;8.742;2022-11-20T04:14:54;5.70;99.90
4596;DHT22;2310;49.978;8.742;2022-11-20T04:19:01;5.70;99.90
4596;DHT22;2310;49.978;8.742;2022-11-20T04:23:02;5.70;99.90
4596;DHT22;2310;49.978;8.742;2022-11-20T04:27:04;5.70;99.90
4596;DHT22;2310;49.978;8.742;2022-11-20T04:31:13;5.70;99.90
4596;DHT22;2310;49.978;8.742;2022-11-20T04:35:15;5.70;99.90
4596;DHT22;2310;49.978;8.742;2022-11-20T04:39:16;5.80;99.90
4596;DHT22;2310;49.978;8.742;2022-11-20T04:43:17;5.60;99.90
4596;DHT22;2310;49.978;8.742;2022-11-20T04:47:19;5.60;99.90
4596;DHT22;2310;49.978;8.742;2022-11-20T04:51:20;5.80;99.90
4596;DHT22;2310;49.978;8.742;2022-11-20T04:55:21;5.90;99.90
4596;DHT22;2310;49.978;8.742;2022-11-20T04:59:22;5.90;99.90
4596;DHT22;2310;49.978;8.742;2022-11-20T05:03:24;5.90;99.90
4596;DHT22;2310;49.978;8.742;2022-11-20T05:07:25;5.80;99.90
4596;DHT22;2310;49.978;8.742;2022-11-20T05:11:26;5.80;99.90
4596;DHT22;2310;49.978;8.742;2022-11-20T05:15:29;5.80;99.90
4596;DHT22;2310;49.978;8.742;2022-11-20T05:19:31;5.90;99.90
4596;DHT22;2310;49.978;8.742;2022-11-20T05:23:32;5.90;99.90
4596;DHT22;2310;49.978;8.742;2022-11-20T05:27:34;5.90;99.90
4596;DHT22;2310;49.978;8.742;2022-11-20T05:31:35;5.90;99.90
4596;DHT22;2310;49.978;8.742;2022-11-20T05:35:38;5.90;99.90
4596;DHT22;2310;49.978;8.742;2022-11-20T05:39:39;5.90;99.90
4596;DHT22;2310;49.978;8.742;2022-11-20T05:43:42;5.90;99.90
4596;DHT22;2310;49.978;8.742;2022-11-20T05:51:11;5.90;99.90
4596;DHT22;2310;49.978;8.742;2022-11-20T05:55:13;5.90;99.90
4596;DHT22;2310;49.978;8.742;2022-11-20T05:59:14;5.90;99.90
4596;DHT22;2310;49.978;8.742;2022-11-20T06:03:15;5.90;99.90
4596;DHT22;2310;49.978;8.742;2022-11-20T06:07:16;5.90;99.90
4596;DHT22;2310;49.978;8.742;2022-11-20T06:11:18;5.90;99.90
4596;DHT22;2310;49.978;8.742;2022-11-20T06:15:19;5.90;99.90
4596;DHT22;2310;49.978;8.742;2022-11-20T06:19:20;5.90;99.90
4596;DHT22;2310;49.978;8.742;2022-11-20T06:23:22;5.80;99.90
4596;DHT22;2310;49.978;8.742;2022-11-20T06:27:23;5.90;99.90
4596;DHT22;2310;49.978;8.742;2022-11-20T06:31:25;5.90;99.90
4596;DHT22;2310;49.978;8.742;2022-11-20T06:35:27;5.80;99.90
4596;DHT22;2310;49.978;8.742;2022-11-20T06:39:28;5.80;99.90
4596;DHT22;2310;49.978;8.742;2022-11-20T06:43:29;5.70;99.90
4596;DHT22;2310;49.978;8.742;2022-11-20T06:47:30;5.80;99.90
4596;DHT22;2310;49.978;8.742;2022-11-20T06:51:31;5.70;99.90
4596;DHT22;2310;49.978;8.742;2022-11-20T06:55:33;5.70;99.90
4596;DHT22;2310;49.978;8.742;2022-11-20T06:59:34;5.80;99.90
4596;DHT22;2310;49.978;8.742;2022-11-20T07:03:35;5.90;99.90
4596;DHT22;2310;49.978;8.742;2022-11-20T07:07:37;5.70;99.90
4596;DHT22;2310;49.978;8.742;2022-11-20T07:11:38;5.70;99.90
4596;DHT22;2310;49.978;8.742;2022-11-20T07:15:40;5.70;99.90
4596;DHT22;2310;49.978;8.742;2022-11-20T07:19:41;5.80;99.90
4596;DHT22;2310;49.978;8.742;2022-11-20T07:23:43;5.80;99.90
4596;DHT22;2310;49.978;8.742;2022-11-20T07:27:45;5.70;99.90
4596;DHT22;2310;49.978;8.742;2022-11-20T07:31:46;5.70;99.90
4596;DHT22;2310;49.978;8.742;2022-11-20T07:35:47;5.80;99.90
4596;DHT22;2310;49.978;8.742;2022-11-20T07:39:48;5.60;99.90
4596;DHT22;2310;49.978;8.742;2022-11-20T07:43:49;5.80;99.90
4596;DHT22;2310;49.978;8.742;2022-11-20T07:47:51;5.90;99.90
4596;DHT22;2310;49.978;8.742;2022-11-20T07:51:52;6.00;99.90
4596;DHT22;2310;49.978;8.742;2022-11-20T07:56:02;5.90;99.90
4596;DHT22;2310;49.978;8.742;2022-11-20T08:00:05;6.00;99.90
4596;DHT22;2310;49.978;8.742;2022-11-20T08:04:09;6.00;99.90
4596;DHT22;2310;49.978;8.742;2022-11-20T08:08:10;6.00;99.90
4596;DHT22;2310;49.978;8.742;2022-11-20T08:12:20;6.00;99.90
4596;DHT22;2310;49.978;8.742;2022-11-20T08:16:45;5.90;99.90
4596;DHT22;2310;49.978;8.742;2022-11-20T08:20:46;5.80;99.90
4596;DHT22;2310;49.978;8.742;2022-11-20T08:24:48;5.80;99.90
4596;DHT22;2310;49.978;8.742;2022-11-20T08:28:54;5.90;99.90
4596;DHT22;2310;49.978;8.742;2022-11-20T08:33:02;6.20;99.90
4596;DHT22;2310;49.978;8.742;2022-11-20T08:37:04;6.40;99.90
4596;DHT22;2310;49.978;8.742;2022-11-20T08:41:05;6.30;99.90
4596;DHT22;2310;49.978;8.742;2022-11-20T08:45:09;6.10;99.90
4596;DHT22;2310;49.978;8.742;2022-11-20T08:49:11;6.20;99.90
4596;DHT22;2310;49.978;8.742;2022-11-20T08:53:13;6.50;99.90
4596;DHT22;2310;49.978;8.742;2022-11-20T08:57:14;6.50;99.90
4596;DHT22;2310;49.978;8.742;2022-11-20T09:01:15;6.60;99.90
4596;DHT22;2310;49.978;8.742;2022-11-20T09:05:17;6.90;99.90
4596;DHT22;2310;49.978;8.742;2022-11-20T09:09:18;6.70;99.90
4596;DHT22;2310;49.978;8.742;2022-11-20T09:13:21;7.10;99.90
4596;DHT22;2310;49.978;8.742;2022-11-20T09:17:23;7.20;99.90
4596;DHT22;2310;49.978;8.742;2022-11-20T09:21:24;7.50;99.90
4596;DHT22;2310;49.978;8.742;2022-11-20T09:25:26;7.50;99.90
4596;DHT22;2310;49.978;8.742;2022-11-20T09:29:27;7.70;99.90
4596;DHT22;2310;49.978;8.742;2022-11-20T09:33:28;7.70;99.90
4596;DHT22;2310;49.978;8.742;2022-11-20T09:37:30;7.60;99.90
4596;DHT22;2310;49.978;8.742;2022-11-20T09:45:59;7.60;99.90
4596;DHT22;2310;49.978;8.742;2022-11-20T09:50:26;7.70;99.90
4596;DHT22;2310;49.978;8.742;2022-11-20T09:54:31;7.70;99.90
4596;DHT22;2310;49.978;8.742;2022-11-20T09:58:42;7.70;99.90
4596;DHT22;2310;49.978;8.742;2022-11-20T10:03:00;7.80;99.90
4596;DHT22;2310;49.978;8.742;2022-11-20T10:07:07;7.70;99.90
4596;DHT22;2310;49.978;8.742;2022-11-20T10:11:35;7.70;99.90
4596;DHT22;2310;49.978;8.742;2022-11-20T10:24:43;7.50;99.90
4596;DHT22;2310;49.978;8.742;2022-11-20T10:28:53;7.50;99.90
4596;DHT22;2310;49.978;8.742;2022-11-20T10:33:03;7.50;99.90
4596;DHT22;2310;49.978;8.742;2022-11-20T10:37:04;7.70;99.90
4596;DHT22;2310;49.978;8.742;2022-11-20T10:41:05;7.80;99.90
4596;DHT22;2310;49.978;8.742;2022-11-20T10:49:30;7.80;99.90
4596;DHT22;2310;49.978;8.742;2022-11-20T11:02:19;7.80;99.90
4596;DHT22;2310;49.978;8.742;2022-11-20T11:14:55;7.50;99.90
4596;DHT22;2310;49.978;8.742;2022-11-20T11:19:05;7.50;99.90
4596;DHT22;2310;49.978;8.742;2022-11-20T11:23:10;7.50;99.90
4596;DHT22;2310;49.978;8.742;2022-11-20T11:27:14;8.10;99.90
4596;DHT22;2310;49.978;8.742;2022-11-20T11:31:23;8.30;99.90
4596;DHT22;2310;49.978;8.742;2022-11-20T11:35:27;8.30;99.90
4596;DHT22;2310;49.978;8.742;2022-11-20T11:39:30;8.10;99.90
4596;DHT22;2310;49.978;8.742;2022-11-20T11:43:36;8.00;99.90
4596;DHT22;2310;49.978;8.742;2022-11-20T11:47:58;8.10;99.90
4596;DHT22;2310;49.978;8.742;2022-11-20T11:56:09;8.00;99.90
4596;DHT22;2310;49.978;8.742;2022-11-20T12:04:42;8.20;99.90
4596;DHT22;2310;49.978;8.742;2022-11-20T12:08:49;8.10;99.90
4596;DHT22;2310;49.978;8.742;2022-11-20T12:12:54;8.10;99.90
4596;DHT22;2310;49.978;8.742;2022-11-20T12:16:56;8.20;99.90
4596;DHT22;2310;49.978;8.742;2022-11-20T12:25:19;8.50;99.90
4596;DHT22;2310;49.978;8.742;2022-11-20T12:42:46;8.80;99.90
4596;DHT22;2310;49.978;8.742;2022-11-20T12:55:59;9.00;99.90
4596;DHT22;2310;49.978;8.742;2022-11-20T13:00:09;8.80;99.90
4596;DHT22;2310;49.978;8.742;2022-11-20T13:08:25;8.70;99.90
4596;DHT22;2310;49.978;8.742;2022-11-20T13:12:43;8.40;99.90
4596;DHT22;2310;49.978;8.742;2022-11-20T13:16:57;8.50;99.90
4596;DHT22;2310;49.978;8.742;2022-11-20T13:20:54;8.70;99.90
4596;DHT22;2310;49.978;8.742;2022-11-20T13:24:55;8.80;99.90
4596;DHT22;2310;49.978;8.742;2022-11-20T13:29:11;8.80;99.90
4596;DHT22;2310;49.978;8.742;2022-11-20T13:33:32;8.60;99.90
4596;DHT22;2310;49.978;8.742;2022-11-20T13:37:36;8.30;99.90
4596;DHT22;2310;49.978;8.742;2022-11-20T13:41:38;8.50;99.90
4596;DHT22;2310;49.978;8.742;2022-11-20T13:45:40;8.10;99.90
4596;DHT22;2310;49.978;8.742;2022-11-20T13:49:42;8.20;99.90
4596;DHT22;2310;49.978;8.742;2022-11-20T13:54:34;8.00;99.90
4596;DHT22;2310;49.978;8.742;2022-11-20T14:02:18;8.20;99.90
4596;DHT22;2310;49.978;8.742;2022-11-20T14:06:25;8.40;99.90
4596;DHT22;2310;49.978;8.742;2022-11-20T14:10:30;8.40;99.90
4596;DHT22;2310;49.978;8.742;2022-11-20T14:14:32;8.60;99.90
4596;DHT22;2310;49.978;8.742;2022-11-20T14:18:34;8.50;99.90
4596;DHT22;2310;49.978;8.742;2022-11-20T14:22:35;8.50;99.90
4596;DHT22;2310;49.978;8.742;2022-11-20T14:26:38;8.40;99.90
4596;DHT22;2310;49.978;8.742;2022-11-20T14:30:46;8.30;99.90
4596;DHT22;2310;49.978;8.742;2022-11-20T14:34:49;8.20;99.90
4596;DHT22;2310;49.978;8.742;2022-11-20T14:38:52;8.40;99.90
4596;DHT22;2310;49.978;8.742;2022-11-20T14:42:54;8.60;99.90
4596;DHT22;2310;49.978;8.742;2022-11-20T14:46:56;8.50;99.90
4596;DHT22;2310;49.978;8.742;2022-11-20T14:50:58;8.50;99.90
4596;DHT22;2310;49.978;8.742;2022-11-20T14:54:59;8.50;99.90
4596;DHT22;2310;49.978;8.742;2022-11-20T14:59:01;8.30;99.90
4596;DHT22;2310;49.978;8.742;2022-11-20T15:03:02;8.30;99.90
4596;DHT22;2310;49.978;8.742;2022-11-20T15:07:03;8.40;99.90
4596;DHT22;2310;49.978;8.742;2022-11-20T15:15:11;8.10;99.90
4596;DHT22;2310;49.978;8.742;2022-11-20T15:19:19;8.30;99.90
4596;DHT22;2310;49.978;8.742;2022-11-20T15:23:22;8.40;99.90
4596;DHT22;2310;49.978;8.742;2022-11-20T15:27:23;8.40;99.90
4596;DHT22;2310;49.978;8.742;2022-11-20T15:31:29;8.30;99.90
4596;DHT22;2310;49.978;8.742;2022-11-20T15:35:30;8.20;99.90
4596;DHT22;2310;49.978;8.742;2022-11-20T15:39:31;8.20;99.90
4596;DHT22;2310;49.978;8.742;2022-11-20T15:43:33;8.20;99.90
4596;DHT22;2310;49.978;8.742;2022-11-20T15:47:35;8.30;99.90
4596;DHT22;2310;49.978;8.742;2022-11-20T15:51:38;8.40;99.90
4596;DHT22;2310;49.978;8.742;2022-11-20T15:55:40;8.40;99.90
4596;DHT22;2310;49.978;8.742;2022-11-20T15:59:42;8.40;99.90
4596;DHT22;2310;49.978;8.742;2022-11-20T16:03:43;8.40;99.90
4596;DHT22;2310;49.978;8.742;2022-11-20T16:07:44;9.50;99.90
4596;DHT22;2310;49.978;8.742;2022-11-20T16:11:45;10.30;99.90
4596;DHT22;2310;49.978;8.742;2022-11-20T16:15:55;10.90;99.90
4596;DHT22;2310;49.978;8.742;2022-11-20T16:19:57;11.40;99.90
4596;DHT22;2310;49.978;8.742;2022-11-20T16:24:04;11.50;99.90
4596;DHT22;2310;49.978;8.742;2022-11-20T16:28:06;10.40;99.90
4596;DHT22;2310;49.978;8.742;2022-11-20T16:32:07;9.60;99.90
4596;DHT22;2310;49.978;8.742;2022-11-20T16:36:11;9.30;99.90
4596;DHT22;2310;49.978;8.742;2022-11-20T16:40:12;9.10;99.90
4596;DHT22;2310;49.978;8.742;2022-11-20T16:44:13;9.10;99.90
4596;DHT22;2310;49.978;8.742;2022-11-20T16:48:15;8.90;99.90
4596;DHT22;2310;49.978;8.742;2022-11-20T16:52:17;8.80;99.90
4596;DHT22;2310;49.978;8.742;2022-11-20T16:56:20;8.70;99.90
4596;DHT22;2310;49.978;8.742;2022-11-20T17:00:21;8.60;99.90
4596;DHT22;2310;49.978;8.742;2022-11-20T17:04:23;8.50;99.90
4596;DHT22;2310;49.978;8.742;2022-11-20T17:08:27;8.60;99.90
4596;DHT22;2310;49.978;8.742;2022-11-20T17:12:30;8.70;99.90
4596;DHT22;2310;49.978;8.742;2022-11-20T17:16:31;8.70;99.90
4596;DHT22;2310;49.978;8.742;2022-11-20T17:20:32;8.80;99.90
4596;DHT22;2310;49.978;8.742;2022-11-20T17:24:33;8.80;99.90
4596;DHT22;2310;49.978;8.742;2022-11-20T17:28:36;8.60;99.90
4596;DHT22;2310;49.978;8.742;2022-11-20T17:32:37;8.70;99.90
4596;DHT22;2310;49.978;8.742;2022-11-20T17:36:39;8.60;99.90
4596;DHT22;2310;49.978;8.742;2022-11-20T17:40:44;8.40;99.90
4596;DHT22;2310;49.978;8.742;2022-11-20T17:44:46;8.30;99.90
4596;DHT22;2310;49.978;8.742;2022-11-20T17:48:48;8.40;99.90
4596;DHT22;2310;49.978;8.742;2022-11-20T17:52:49;8.30;99.90
4596;DHT22;2310;49.978;8.742;2022-11-20T17:56:50;8.20;99.90
4596;DHT22;2310;49.978;8.742;2022-11-20T18:01:10;8.20;99.90
4596;DHT22;2310;49.978;8.742;2022-11-20T18:05:12;8.10;99.90
4596;DHT22;2310;49.978;8.742;2022-11-20T18:09:13;8.30;99.90
4596;DHT22;2310;49.978;8.742;2022-11-20T18:13:14;8.30;99.90
4596;DHT22;2310;49.978;8.742;2022-11-20T18:17:16;8.30;99.90
4596;DHT22;2310;49.978;8.742;2022-11-20T18:21:17;8.40;99.90
4596;DHT22;2310;49.978;8.742;2022-11-20T18:25:18;8.20;99.90
4596;DHT22;2310;49.978;8.742;2022-11-20T18:29:19;8.10;99.90
4596;DHT22;2310;49.978;8.742;2022-11-20T18:33:20;8.10;99.90
4596;DHT22;2310;49.978;8.742;2022-11-20T18:37:23;8.10;99.90
4596;DHT22;2310;49.978;8.742;2022-11-20T18:41:26;8.00;99.90
4596;DHT22;2310;49.978;8.742;2022-11-20T18:45:46;8.10;99.90
4596;DHT22;2310;49.978;8.742;2022-11-20T18:49:49;7.90;99.90
4596;DHT22;2310;49.978;8.742;2022-11-20T18:53:52;8.10;99.90
4596;DHT22;2310;49.978;8.742;2022-11-20T18:57:53;8.10;99.90
4596;DHT22;2310;49.978;8.742;2022-11-20T19:01:55;8.00;99.90
4596;DHT22;2310;49.978;8.742;2022-11-20T19:05:56;8.00;99.90
4596;DHT22;2310;49.978;8.742;2022-11-20T19:09:57;7.80;99.90
4596;DHT22;2310;49.978;8.742;2022-11-20T19:14:00;7.70;99.90
4596;DHT22;2310;49.978;8.742;2022-11-20T19:18:02;7.90;99.90
4596;DHT22;2310;49.978;8.742;2022-11-20T19:22:03;7.80;99.90
4596;DHT22;2310;49.978;8.742;2022-11-20T19:26:05;7.90;99.90
4596;DHT22;2310;49.978;8.742;2022-11-20T19:30:07;7.90;99.90
4596;DHT22;2310;49.978;8.742;2022-11-20T19:34:09;7.80;99.90
4596;DHT22;2310;49.978;8.742;2022-11-20T19:38:12;7.80;99.90
4596;DHT22;2310;49.978;8.742;2022-11-20T19:42:13;7.80;99.90
4596;DHT22;2310;49.978;8.742;2022-11-20T19:46:16;7.80;99.90
4596;DHT22;2310;49.978;8.742;2022-11-20T19:50:18;7.80;99.90
4596;DHT22;2310;49.978;8.742;2022-11-20T19:54:19;7.90;99.90
4596;DHT22;2310;49.978;8.742;2022-11-20T19:58:20;8.00;99.90
4596;DHT22;2310;49.978;8.742;2022-11-20T20:02:21;8.10;99.90
4596;DHT22;2310;49.978;8.742;2022-11-20T20:06:24;8.20;99.90
4596;DHT22;2310;49.978;8.742;2022-11-20T20:10:26;8.00;99.90
4596;DHT22;2310;49.978;8.742;2022-11-20T20:14:27;7.90;99.90
4596;DHT22;2310;49.978;8.742;2022-11-20T20:18:28;7.80;99.90
4596;DHT22;2310;49.978;8.742;2022-11-20T20:22:29;7.80;99.90
4596;DHT22;2310;49.978;8.742;2022-11-20T20:26:31;8.00;99.90
4596;DHT22;2310;49.978;8.742;2022-11-20T20:30:35;8.00;99.90
4596;DHT22;2310;49.978;8.742;2022-11-20T20:34:36;8.00;99.90
4596;DHT22;2310;49.978;8.742;2022-11-20T20:38:38;8.00;99.90
4596;DHT22;2310;49.978;8.742;2022-11-20T20:42:39;7.80;99.90
4596;DHT22;2310;49.978;8.742;2022-11-20T20:46:40;7.60;99.90
4596;DHT22;2310;49.978;8.742;2022-11-20T20:50:41;7.80;99.90
4596;DHT22;2310;49.978;8.742;2022-11-20T20:54:43;7.70;99.90
4596;DHT22;2310;49.978;8.742;2022-11-20T20:58:44;7.80;99.90
4596;DHT22;2310;49.978;8.742;2022-11-20T21:02:45;7.70;99.90
4596;DHT22;2310;49.978;8.742;2022-11-20T21:06:47;7.80;99.90
4596;DHT22;2310;49.978;8.742;2022-11-20T21:10:48;7.70;99.90
4596;DHT22;2310;49.978;8.742;2022-11-20T21:14:49;7.90;99.90
4596;DHT22;2310;49.978;8.742;2022-11-20T21:18:51;7.60;99.90
4596;DHT22;2310;49.978;8.742;2022-11-20T21:22:52;7.60;99.90
4596;DHT22;2310;49.978;8.742;2022-11-20T21:26:54;7.70;99.90
4596;DHT22;2310;49.978;8.742;2022-11-20T21:31:19;7.50;99.90
4596;DHT22;2310;49.978;8.742;2022-11-20T21:35:18;7.60;99.90
4596;DHT22;2310;49.978;8.742;2022-11-20T21:39:19;7.50;99.90
4596;DHT22;2310;49.978;8.742;2022-11-20T21:43:21;7.40;99.90
4596;DHT22;2310;49.978;8.742;2022-11-20T21:47:23;7.40;99.90
4596;DHT22;2310;49.978;8.742;2022-11-20T21:51:25;7.60;99.90
4596;DHT22;2310;49.978;8.742;2022-11-20T21:55:28;7.60;99.90
4596;DHT22;2310;49.978;8.742;2022-11-20T21:59:29;7.50;99.90
4596;DHT22;2310;49.978;8.742;2022-11-20T22:03:31;7.60;99.90
4596;DHT22;2310;49.978;8.742;2022-11-20T22:07:32;7.80;99.90
4596;DHT22;2310;49.978;8.742;2022-11-20T22:11:33;7.80;99.90
4596;DHT22;2310;49.978;8.742;2022-11-20T22:15:35;7.70;99.90
4596;DHT22;2310;49.978;8.742;2022-11-20T22:19:38;7.70;99.90
4596;DHT22;2310;49.978;8.742;2022-11-20T22:23:40;7.70;99.90
4596;DHT22;2310;49.978;8.742;2022-11-20T22:27:41;7.60;99.90
4596;DHT22;2310;49.978;8.742;2022-11-20T22:31:42;7.70;99.90
4596;DHT22;2310;49.978;8.742;2022-11-20T22:35:44;7.90;99.90
4596;DHT22;2310;49.978;8.742;2022-11-20T22:39:45;7.70;99.90
4596;DHT22;2310;49.978;8.742;2022-11-20T22:43:46;7.80;99.90
4596;DHT22;2310;49.978;8.742;2022-11-20T22:47:47;7.70;99.90
4596;DHT22;2310;49.978;8.742;2022-11-20T22:51:49;7.80;99.90
4596;DHT22;2310;49.978;8.742;2022-11-20T22:55:50;7.80;99.90
4596;DHT22;2310;49.978;8.742;2022-11-20T22:59:51;7.70;99.90
4596;DHT22;2310;49.978;8.742;2022-11-20T23:03:58;7.70;99.90
4596;DHT22;2310;49.978;8.742;2022-11-20T23:07:59;7.90;99.90
4596;DHT22;2310;49.978;8.742;2022-11-20T23:12:00;7.80;99.90
4596;DHT22;2310;49.978;8.742;2022-11-20T23:16:04;7.80;99.90
4596;DHT22;2310;49.978;8.742;2022-11-20T23:20:07;7.80;99.90
4596;DHT22;2310;49.978;8.742;2022-11-20T23:24:09;7.80;99.90
4596;DHT22;2310;49.978;8.742;2022-11-20T23:28:10;7.90;99.90
4596;DHT22;2310;49.978;8.742;2022-11-20T23:32:11;7.90;99.90
4596;DHT22;2310;49.978;8.742;2022-11-20T23:36:12;7.90;99.90
4596;DHT22;2310;49.978;8.742;2022-11-20T23:40:14;8.00;99.90
4596;DHT22;2310;49.978;8.742;2022-11-20T23:44:15;8.00;99.90
4596;DHT22;2310;49.978;8.742;2022-11-20T23:48:17;7.90;99.90
4596;DHT22;2310;49.978;8.742;2022-11-20T23:52:18;7.80;99.90
4596;DHT22;2310;49.978;8.742;2022-11-20T23:56:20;8.00;99.90
